Time,TemperatureF,DewpointF,PressureIn,WindDirection,WindDirectionDegrees,WindSpeedMPH,WindSpeedGustMPH,Humidity,HourlyPrecipIn,Conditions,Clouds,dailyrainin,SolarRadiationWatts/m^2,SoftwareType,DateUTC
2013-01-15 00:22:00,4.0,-2.0,-100.00,NNW,340,2.0,4.0,77,0.00,,,0.06,0.000000,,2013-01-15 07:22:00,
2013-01-15 00:32:00,4.0,-2.0,-100.00,NNW,340,2.0,4.0,77,0.00,,,0.06,0.000000,,2013-01-15 07:32:00,
2013-01-15 00:42:00,4.0,-2.0,-100.00,NNW,340,2.0,4.0,77,0.00,,,0.06,0.000000,,2013-01-15 07:42:00,
2013-01-15 00:52:00,4.0,-2.0,-100.00,NNW,340,2.0,4.0,77,0.00,,,0.06,0.000000,,2013-01-15 07:52:00,
2013-01-15 01:22:00,2.0,-4.0,-100.00,NNE,12,3.0,5.0,75,0.00,,,0.06,0.000000,,2013-01-15 08:22:00,
2013-01-15 01:32:00,2.0,-4.0,-100.00,NNE,12,3.0,5.0,75,0.00,,,0.06,0.000000,,2013-01-15 08:32:00,
2013-01-15 01:42:00,2.0,-4.0,-100.00,NNE,12,3.0,5.0,75,0.00,,,0.06,0.000000,,2013-01-15 08:42:00,
2013-01-15 01:52:00,2.0,-4.0,-100.00,NNE,12,3.0,5.0,75,0.00,,,0.06,0.000000,,2013-01-15 08:52:00,
2013-01-15 02:22:00,2.0,-4.0,-100.00,NNE,21,4.0,9.0,74,0.00,,,0.06,0.000000,,2013-01-15 09:22:00,
2013-01-15 02:33:00,2.0,-4.0,-100.00,NNE,21,4.0,9.0,74,0.00,,,0.06,0.000000,,2013-01-15 09:33:00,
2013-01-15 02:42:00,2.0,-4.0,-100.00,NNE,21,4.0,9.0,74,0.00,,,0.06,0.000000,,2013-01-15 09:42:00,
2013-01-15 02:52:00,2.0,-4.0,-100.00,NNE,21,4.0,9.0,74,0.00,,,0.06,0.000000,,2013-01-15 09:52:00,
2013-01-15 03:22:00,2.0,-4.0,-100.00,NNE,23,2.0,7.0,76,0.00,,,0.06,0.000000,,2013-01-15 10:22:00,
2013-01-15 03:32:00,2.0,-4.0,-100.00,NNE,23,2.0,7.0,76,0.00,,,0.06,0.000000,,2013-01-15 10:32:00,
2013-01-15 04:12:00,1.0,-5.0,-100.00,East,81,0.0,6.0,76,0.00,,,0.06,0.000000,,2013-01-15 11:12:00,
2013-01-15 04:22:00,1.0,-5.0,-100.00,East,81,0.0,6.0,76,0.00,,,0.06,0.000000,,2013-01-15 11:22:00,
2013-01-15 04:32:00,1.0,-5.0,-100.00,East,81,0.0,6.0,76,0.00,,,0.06,0.000000,,2013-01-15 11:32:00,
2013-01-15 05:22:00,1.0,-4.0,-100.00,NE,36,1.0,5.0,77,-99.99,,,0.06,0.000000,,2013-01-15 12:22:00,
2013-01-15 06:23:00,-2.0,-8.0,-100.00,NE,47,3.0,6.0,74,-99.99,,,0.06,0.000000,,2013-01-15 13:23:00,
2013-01-15 06:33:00,-2.0,-8.0,-100.00,NE,47,3.0,6.0,74,-99.99,,,0.06,0.000000,,2013-01-15 13:33:00,
2013-01-15 07:23:00,-1.0,-7.0,-100.00,NE,47,2.0,5.0,75,-99.99,,,0.06,0.000000,,2013-01-15 14:23:00,
2013-01-15 07:33:00,-1.0,-7.0,-100.00,NE,47,2.0,5.0,75,-99.99,,,0.06,0.000000,,2013-01-15 14:33:00,
2013-01-15 08:23:00,1.0,-6.0,-100.00,North,6,1.0,5.0,70,-99.99,,,0.06,12.000000,,2013-01-15 15:23:00,
2013-01-15 09:22:00,7.0,-6.0,-100.00,SE,146,3.0,5.0,55,0.00,,,0.06,76.000000,,2013-01-15 16:22:00,
2013-01-15 10:22:00,9.0,-2.0,-100.00,SE,133,5.0,8.0,61,-99.99,,,0.06,149.000000,,2013-01-15 17:22:00,
2013-01-15 10:33:00,9.0,-2.0,-100.00,SE,133,5.0,8.0,61,-99.99,,,0.06,149.000000,,2013-01-15 17:33:00,
2013-01-15 10:42:00,9.0,-2.0,-100.00,SE,133,5.0,8.0,61,-99.99,,,0.06,149.000000,,2013-01-15 17:42:00,
2013-01-15 10:53:00,9.0,-2.0,-100.00,SE,133,5.0,8.0,61,-99.99,,,0.06,149.000000,,2013-01-15 17:53:00,
2013-01-15 11:42:00,16.0,-2.0,-100.00,South,181,4.0,9.0,45,0.00,,,0.06,247.000000,,2013-01-15 18:42:00,
2013-01-15 11:53:00,16.0,-2.0,-100.00,South,181,4.0,9.0,45,0.00,,,0.06,247.000000,,2013-01-15 18:53:00,
2013-01-15 12:22:00,19.0,0.0,-100.00,SW,220,4.0,10.0,43,0.01,,,0.07,379.000000,,2013-01-15 19:22:00,
2013-01-15 12:33:00,19.0,0.0,-100.00,SW,220,4.0,10.0,43,0.01,,,0.07,379.000000,,2013-01-15 19:33:00,
2013-01-15 13:23:00,20.0,1.0,-100.00,SSW,201,5.0,9.0,43,0.00,,,0.06,559.000000,,2013-01-15 20:23:00,
2013-01-15 13:33:00,20.0,1.0,-100.00,SSW,201,5.0,9.0,43,0.00,,,0.06,559.000000,,2013-01-15 20:33:00,
2013-01-15 13:43:00,20.0,1.0,-100.00,SSW,201,5.0,9.0,43,0.00,,,0.06,559.000000,,2013-01-15 20:43:00,
2013-01-15 13:52:00,20.0,1.0,-100.00,SSW,201,5.0,9.0,43,0.00,,,0.06,559.000000,,2013-01-15 20:52:00,
2013-01-15 14:22:00,22.0,3.0,-100.00,SSW,198,6.0,12.0,43,0.01,,,0.03,677.000000,,2013-01-15 21:22:00,
2013-01-15 14:33:00,22.0,3.0,-100.00,SSW,198,6.0,12.0,43,0.01,,,0.03,677.000000,,2013-01-15 21:33:00,
2013-01-15 14:43:00,22.0,3.0,-100.00,SSW,198,6.0,12.0,43,0.01,,,0.03,677.000000,,2013-01-15 21:43:00,
2013-01-15 14:52:00,22.0,3.0,-100.00,SSW,198,6.0,12.0,43,0.01,,,0.03,677.000000,,2013-01-15 21:52:00,
2013-01-15 15:22:00,23.0,1.0,-100.00,SSW,200,6.0,13.0,37,0.00,,,0.02,634.000000,,2013-01-15 22:22:00,
2013-01-15 15:33:00,23.0,1.0,-100.00,SSW,200,6.0,13.0,37,0.00,,,0.02,634.000000,,2013-01-15 22:33:00,
2013-01-15 15:42:00,23.0,1.0,-100.00,SSW,200,6.0,13.0,37,0.00,,,0.02,634.000000,,2013-01-15 22:42:00,
2013-01-15 15:52:00,23.0,1.0,-100.00,SSW,200,6.0,13.0,37,0.00,,,0.02,634.000000,,2013-01-15 22:52:00,
2013-01-15 16:22:00,23.0,0.0,-100.00,SW,226,4.0,11.0,36,0.01,,,0.03,440.000000,,2013-01-15 23:22:00,
2013-01-15 16:32:00,23.0,0.0,-100.00,SW,226,4.0,11.0,36,0.01,,,0.03,440.000000,,2013-01-15 23:32:00,
2013-01-15 16:42:00,23.0,0.0,-100.00,SW,226,4.0,11.0,36,0.01,,,0.03,440.000000,,2013-01-15 23:42:00,
2013-01-15 16:52:00,23.0,0.0,-100.00,SW,226,4.0,11.0,36,0.01,,,0.03,440.000000,,2013-01-15 23:52:00,
2013-01-15 17:22:00,18.0,-2.0,-100.00,SW,227,3.0,10.0,41,0.00,,,0.03,209.000000,,2013-01-16 00:22:00,
2013-01-15 17:32:00,18.0,-2.0,-100.00,SW,227,3.0,10.0,41,0.00,,,0.03,209.000000,,2013-01-16 00:32:00,
2013-01-15 17:42:00,18.0,-2.0,-100.00,SW,227,3.0,10.0,41,0.00,,,0.03,209.000000,,2013-01-16 00:42:00,
2013-01-15 17:52:00,18.0,-2.0,-100.00,SW,227,3.0,10.0,41,0.00,,,0.03,209.000000,,2013-01-16 00:52:00,
2013-01-15 18:22:00,11.0,-2.0,-100.00,WNW,296,2.0,6.0,55,0.00,,,0.03,13.000000,,2013-01-16 01:22:00,
2013-01-15 18:33:00,11.0,-2.0,-100.00,WNW,296,2.0,6.0,55,0.00,,,0.03,13.000000,,2013-01-16 01:33:00,
2013-01-15 18:42:00,11.0,-2.0,-100.00,WNW,296,2.0,6.0,55,0.00,,,0.03,13.000000,,2013-01-16 01:42:00,
2013-01-15 18:52:00,11.0,-2.0,-100.00,WNW,296,2.0,6.0,55,0.00,,,0.03,13.000000,,2013-01-16 01:52:00,
2013-01-15 19:22:00,7.0,-3.0,-100.00,North,10,3.0,5.0,62,0.00,,,0.03,0.000000,,2013-01-16 02:22:00,
2013-01-15 19:32:00,7.0,-3.0,-100.00,North,10,3.0,5.0,62,0.00,,,0.03,0.000000,,2013-01-16 02:32:00,
2013-01-15 19:42:00,7.0,-3.0,-100.00,North,10,3.0,5.0,62,0.00,,,0.03,0.000000,,2013-01-16 02:42:00,
2013-01-15 19:52:00,7.0,-3.0,-100.00,North,10,3.0,5.0,62,0.00,,,0.03,0.000000,,2013-01-16 02:52:00,
2013-01-15 20:22:00,7.0,-4.0,-100.00,North,1,3.0,6.0,60,0.00,,,-99.99,0.000000,,2013-01-16 03:22:00,
2013-01-15 20:32:00,7.0,-4.0,-100.00,North,1,3.0,6.0,60,0.00,,,-99.99,0.000000,,2013-01-16 03:32:00,
2013-01-15 20:42:00,7.0,-4.0,-100.00,North,1,3.0,6.0,60,0.00,,,-99.99,0.000000,,2013-01-16 03:42:00,
2013-01-15 20:52:00,7.0,-4.0,-100.00,North,1,3.0,6.0,60,0.00,,,-99.99,0.000000,,2013-01-16 03:52:00,
2013-01-15 21:22:00,6.0,-4.0,-100.00,NNE,23,6.0,7.0,64,0.00,,,0.03,0.000000,,2013-01-16 04:22:00,
2013-01-15 21:32:00,6.0,-4.0,-100.00,NNE,23,6.0,7.0,64,0.00,,,0.03,0.000000,,2013-01-16 04:32:00,
2013-01-15 21:42:00,6.0,-4.0,-100.00,NNE,23,6.0,7.0,64,0.00,,,0.03,0.000000,,2013-01-16 04:42:00,
2013-01-15 21:52:00,6.0,-4.0,-100.00,NNE,23,6.0,7.0,64,0.00,,,0.03,0.000000,,2013-01-16 04:52:00,
2013-01-15 22:22:00,6.0,-4.0,-100.00,ENE,70,1.0,8.0,64,0.00,,,0.03,0.000000,,2013-01-16 05:22:00,
2013-01-15 22:32:00,6.0,-4.0,-100.00,ENE,70,1.0,8.0,64,0.00,,,0.03,0.000000,,2013-01-16 05:32:00,
2013-01-15 22:42:00,6.0,-4.0,-100.00,ENE,70,1.0,8.0,64,0.00,,,0.03,0.000000,,2013-01-16 05:42:00,
2013-01-15 22:52:00,6.0,-4.0,-100.00,ENE,70,1.0,8.0,64,0.00,,,0.03,0.000000,,2013-01-16 05:52:00,
2013-01-15 23:22:00,6.0,-3.0,-100.00,NE,35,2.0,7.0,65,0.00,,,0.03,0.000000,,2013-01-16 06:22:00,
2013-01-15 23:32:00,6.0,-3.0,-100.00,NE,35,2.0,7.0,65,0.00,,,0.03,0.000000,,2013-01-16 06:32:00,
2013-01-15 23:42:00,6.0,-3.0,-100.00,NE,35,2.0,7.0,65,0.00,,,0.03,0.000000,,2013-01-16 06:42:00,
2013-01-15 23:52:00,6.0,-3.0,-100.00,NE,35,2.0,7.0,65,0.00,,,0.03,0.000000,,2013-01-16 06:52:00,